createdAt,value
2022-08-17T00:04:19.448Z,22.47
2022-08-17T00:09:23.958Z,22.37
2022-08-17T00:14:26.976Z,22.34
2022-08-17T00:19:33.025Z,22.29
2022-08-17T00:24:37.493Z,22.27
2022-08-17T00:29:40.774Z,22.26
2022-08-17T00:34:43.681Z,22.21
2022-08-17T00:39:48.341Z,22.15
2022-08-17T00:44:51.490Z,22.18
2022-08-17T00:49:54.744Z,22.27
2022-08-17T00:55:00.507Z,22.29
2022-08-17T01:00:09.475Z,22.20
2022-08-17T01:05:18.653Z,22.17
2022-08-17T01:11:00.084Z,21.97
2022-08-17T01:15:57.502Z,21.71
2022-08-17T01:21:08.662Z,21.40
2022-08-17T01:26:13.053Z,21.31
2022-08-17T01:31:16.351Z,21.15
2022-08-17T01:36:19.535Z,20.99
2022-08-17T01:41:25.465Z,20.78
2022-08-17T01:46:30.061Z,20.63
2022-08-17T01:51:33.793Z,20.58
2022-08-17T01:56:42.805Z,20.45
2022-08-17T02:01:46.980Z,20.23
2022-08-17T02:06:53.618Z,20.15
2022-08-17T02:12:38.538Z,20.15
2022-08-17T02:17:26.584Z,20.18
2022-08-17T02:22:30.162Z,20.24
2022-08-17T02:27:34.456Z,20.23
2022-08-17T02:32:37.779Z,20.16
2022-08-17T02:37:43.080Z,20.11
2022-08-17T02:42:52.590Z,20.08
2022-08-17T02:47:55.979Z,20.07
2022-08-17T02:53:01.684Z,20.03
2022-08-17T02:58:06.703Z,19.98
2022-08-17T03:03:13.704Z,19.97
2022-08-17T03:08:17.041Z,20.06
2022-08-17T03:13:21.752Z,20.14
2022-08-17T03:18:26.290Z,20.27
2022-08-17T03:23:33.110Z,20.23
2022-08-17T03:28:37.560Z,20.22
2022-08-17T03:33:40.773Z,20.14
2022-08-17T03:38:43.763Z,20.07
2022-08-17T03:43:49.397Z,20.03
2022-08-17T03:49:09.981Z,19.99
2022-08-17T03:54:30.567Z,19.95
2022-08-17T03:59:36.306Z,19.86
2022-08-17T04:04:40.338Z,19.80
2022-08-17T04:09:44.988Z,19.81
2022-08-17T04:14:53.147Z,19.74
2022-08-17T04:19:57.713Z,19.74
2022-08-17T04:25:00.742Z,19.77
2022-08-17T04:30:07.289Z,19.82
2022-08-17T04:35:10.799Z,19.84
2022-08-17T04:40:31.586Z,19.86
2022-08-17T04:45:39.995Z,19.88
2022-08-17T04:50:45.286Z,19.91
2022-08-17T04:55:48.423Z,19.90
2022-08-17T05:00:52.841Z,19.96
2022-08-17T05:05:55.924Z,19.98
2022-08-17T05:11:01.024Z,20.05
2022-08-17T05:16:06.403Z,20.04
2022-08-17T05:21:10.096Z,20.09
2022-08-17T05:26:26.458Z,20.13
2022-08-17T05:31:32.034Z,20.26
2022-08-17T05:36:43.722Z,20.30
2022-08-17T05:41:48.842Z,20.34
2022-08-17T05:46:54.358Z,20.39
2022-08-17T05:52:10.437Z,20.19
2022-08-17T05:57:39.509Z,20.26
2022-08-17T06:03:04.547Z,20.65
2022-08-17T06:08:14.152Z,20.95
2022-08-17T06:13:26.836Z,21.10
2022-08-17T06:18:37.737Z,21.31
2022-08-17T06:23:44.671Z,21.45
2022-08-17T06:28:52.685Z,21.54
2022-08-17T06:33:58.087Z,21.64
2022-08-17T06:39:17.108Z,21.65
2022-08-17T06:44:43.463Z,21.65
2022-08-17T06:50:02.148Z,21.67
2022-08-17T06:55:09.392Z,21.69
2022-08-17T07:00:24.339Z,21.75
2022-08-17T07:05:36.356Z,21.83
2022-08-17T07:10:46.096Z,21.91
2022-08-17T07:15:56.510Z,21.90
2022-08-17T07:21:14.173Z,21.86
2022-08-17T07:26:23.314Z,21.91
2022-08-17T07:31:27.592Z,22.00
2022-08-17T07:36:34.749Z,22.06
2022-08-17T07:41:53.037Z,22.13
2022-08-17T07:47:18.845Z,22.31
2022-08-17T07:52:50.751Z,22.34
2022-08-17T07:57:58.064Z,22.38
2022-08-17T08:03:13.550Z,22.34
2022-08-17T08:08:26.335Z,22.26
2022-08-17T08:13:32.351Z,22.03
2022-08-17T08:18:54.818Z,22.08
2022-08-17T08:24:32.547Z,22.13
2022-08-17T08:29:45.773Z,22.25
2022-08-17T08:35:02.837Z,22.44
2022-08-17T08:40:20.904Z,22.39
2022-08-17T08:45:27.627Z,22.34
2022-08-17T08:50:40.298Z,22.48
2022-08-17T08:55:53.022Z,22.64
2022-08-17T09:00:59.496Z,22.86
2022-08-17T09:06:37.765Z,23.07
2022-08-17T09:12:01.077Z,23.42
2022-08-17T09:17:13.890Z,23.69
2022-08-17T09:22:31.923Z,23.84
2022-08-17T09:27:47.765Z,23.87
2022-08-17T09:32:55.847Z,23.94
2022-08-17T09:38:09.959Z,24.23
2022-08-17T09:43:23.311Z,24.46
2022-08-17T09:48:32.703Z,24.51
2022-08-17T09:53:38.225Z,24.49
2022-08-17T09:58:56.716Z,24.54
2022-08-17T10:04:24.849Z,24.43
2022-08-17T10:09:45.251Z,24.31
2022-08-17T10:15:08.077Z,24.22
2022-08-17T10:20:18.354Z,24.08
2022-08-17T10:25:53.986Z,24.07
2022-08-17T10:31:34.357Z,24.14
2022-08-17T10:36:37.958Z,24.05
2022-08-17T10:41:45.844Z,23.95
2022-08-17T10:47:04.683Z,24.00
2022-08-17T10:52:49.392Z,24.17
2022-08-17T10:57:54.872Z,23.98
2022-08-17T11:03:00.998Z,23.15
2022-08-17T11:08:24.629Z,22.30
2022-08-17T11:13:40.065Z,21.78
2022-08-17T11:19:10.266Z,21.32
2022-08-17T11:24:20.124Z,20.93
2022-08-17T11:29:27.547Z,20.71
2022-08-17T11:34:35.394Z,20.45
2022-08-17T11:39:55.557Z,20.30
2022-08-17T11:45:02.533Z,20.13
2022-08-17T11:50:48.253Z,20.01
2022-08-17T11:56:06.302Z,19.93
2022-08-17T12:01:13.629Z,20.00
2022-08-17T12:06:32.042Z,19.96
2022-08-17T12:11:56.393Z,20.02
2022-08-17T12:17:09.183Z,20.05
2022-08-17T12:22:18.908Z,19.96
2022-08-17T12:27:47.700Z,20.07
2022-08-17T12:32:51.057Z,20.30
2022-08-17T12:37:57.651Z,20.31
2022-08-17T12:43:06.737Z,20.50
2022-08-17T12:48:12.641Z,20.79
2022-08-17T12:53:21.306Z,20.89
2022-08-17T12:58:26.881Z,20.90
2022-08-17T13:03:37.271Z,20.76
2022-08-17T13:08:44.361Z,20.62
2022-08-17T13:13:51.303Z,20.71
2022-08-17T13:18:58.426Z,20.73
2022-08-17T13:24:07.797Z,20.85
2022-08-17T13:29:23.888Z,20.85
2022-08-17T13:35:11.785Z,20.86
2022-08-17T13:40:28.036Z,21.14
2022-08-17T13:45:38.964Z,21.40
2022-08-17T13:50:45.717Z,21.29
2022-08-17T13:55:53.448Z,21.18
2022-08-17T14:00:59.332Z,21.19
2022-08-17T14:06:02.623Z,21.30
2022-08-17T14:11:07.014Z,21.75
2022-08-17T14:16:09.997Z,21.77
2022-08-17T14:21:13.384Z,21.81
2022-08-17T14:26:17.731Z,21.74
2022-08-17T14:31:21.278Z,21.70
2022-08-17T14:36:24.182Z,21.72
2022-08-17T14:41:29.020Z,21.65
2022-08-17T14:46:32.738Z,21.72
2022-08-17T14:51:36.294Z,21.72
2022-08-17T14:56:48.202Z,21.71
2022-08-17T15:02:01.042Z,21.83
2022-08-17T15:07:04.165Z,21.94
2022-08-17T15:12:09.545Z,22.04
2022-08-17T15:17:12.496Z,22.09
2022-08-17T15:22:23.853Z,22.33
2022-08-17T15:27:32.429Z,22.48
2022-08-17T15:32:38.992Z,22.54
2022-08-17T15:37:42.011Z,22.55
2022-08-17T15:42:46.337Z,22.64
2022-08-17T15:47:49.503Z,22.59
2022-08-17T15:52:58.768Z,22.71
2022-08-17T15:58:03.162Z,22.89
2022-08-17T16:03:46.298Z,22.96
2022-08-17T16:08:29.838Z,22.92
2022-08-17T16:13:34.168Z,22.92
2022-08-17T16:18:37.831Z,22.94
2022-08-17T16:23:40.752Z,22.84
2022-08-17T16:28:45.174Z,22.82
2022-08-17T16:33:58.498Z,22.74
2022-08-17T16:39:12.505Z,22.67
2022-08-17T16:44:21.795Z,22.66
2022-08-17T16:49:37.147Z,22.59
2022-08-17T16:54:43.790Z,22.46
2022-08-17T16:59:50.343Z,22.47
2022-08-17T17:04:59.378Z,22.39
2022-08-17T17:10:08.717Z,22.30
2022-08-17T17:15:15.694Z,22.04
2022-08-17T17:20:28.836Z,21.95
2022-08-17T17:25:42.014Z,21.59
2022-08-17T17:30:56.741Z,21.45
2022-08-17T17:36:02.931Z,21.47
2022-08-17T17:41:09.774Z,21.49
2022-08-17T17:46:28.085Z,21.54
2022-08-17T17:52:07.873Z,21.48
2022-08-17T17:57:12.215Z,21.46
2022-08-17T18:02:51.540Z,21.38
2022-08-17T18:08:05.941Z,21.42
2022-08-17T18:13:26.688Z,21.38
2022-08-17T18:18:39.686Z,21.31
2022-08-17T18:23:53.129Z,21.24
2022-08-17T18:28:56.133Z,21.31
2022-08-17T18:34:45.935Z,21.49
2022-08-17T18:39:44.437Z,21.22
2022-08-17T18:44:50.614Z,21.16
2022-08-17T18:50:11.954Z,21.19
2022-08-17T18:55:18.206Z,21.17
2022-08-17T19:00:36.609Z,21.05
2022-08-17T19:05:43.142Z,21.00
2022-08-17T19:10:47.598Z,20.97
2022-08-17T19:16:13.955Z,20.92
2022-08-17T19:21:22.480Z,20.88
2022-08-17T19:26:51.209Z,20.75
2022-08-17T19:31:51.548Z,20.74
2022-08-17T19:37:03.472Z,20.72
2022-08-17T19:42:17.741Z,20.72
2022-08-17T19:47:53.299Z,20.72
2022-08-17T19:52:59.023Z,20.69
2022-08-17T19:58:12.452Z,20.64
2022-08-17T20:03:27.073Z,20.61
2022-08-17T20:08:38.775Z,20.57
2022-08-17T20:13:43.729Z,20.57
2022-08-17T20:18:53.161Z,20.53
2022-08-17T20:24:08.065Z,20.52
2022-08-17T20:29:40.006Z,20.52
2022-08-17T20:34:47.533Z,20.42
2022-08-17T20:40:22.086Z,20.37
2022-08-17T20:45:54.080Z,20.30
2022-08-17T20:51:00.928Z,20.26
2022-08-17T20:56:05.954Z,20.24
2022-08-17T21:01:16.131Z,20.27
2022-08-17T21:06:23.053Z,20.27
2022-08-17T21:12:04.252Z,20.20
2022-08-17T21:17:22.731Z,20.19
2022-08-17T21:22:38.658Z,20.12
2022-08-17T21:27:51.333Z,20.02
2022-08-17T21:33:20.691Z,19.99
2022-08-17T21:38:34.920Z,19.91
2022-08-17T21:43:48.666Z,19.90
2022-08-17T21:48:54.531Z,19.93
2022-08-17T21:54:01.340Z,19.91
2022-08-17T21:59:07.825Z,19.93
2022-08-17T22:04:20.674Z,19.93
2022-08-17T22:09:26.692Z,19.96
2022-08-17T22:14:52.730Z,19.93
2022-08-17T22:20:00.023Z,19.93
2022-08-17T22:25:06.694Z,19.91
2022-08-17T22:30:20.369Z,19.93
2022-08-17T22:35:38.448Z,19.94
2022-08-17T22:40:41.601Z,19.92
2022-08-17T22:45:51.430Z,19.93
2022-08-17T22:51:12.817Z,19.85
2022-08-17T22:56:37.345Z,19.80
2022-08-17T23:01:43.395Z,19.74
2022-08-17T23:06:46.438Z,19.69
2022-08-17T23:11:53.514Z,19.70
2022-08-17T23:17:01.131Z,19.73
2022-08-17T23:22:06.120Z,19.71
2022-08-17T23:27:09.046Z,19.70
2022-08-17T23:32:16.169Z,19.65
2022-08-17T23:37:20.564Z,19.65
2022-08-17T23:42:23.959Z,19.64
2022-08-17T23:47:28.722Z,19.61
2022-08-17T23:52:32.254Z,19.55
2022-08-17T23:57:35.850Z,19.57
